sensor_id;sensor_type;location;lat;lon;timestamp;temperature;humidity
47521;DHT22;32291;52.010;4.446;2023-04-25T00:00:20;6.30;99.90
47521;DHT22;32291;52.010;4.446;2023-04-25T00:01:22;6.30;99.90
47521;DHT22;32291;52.010;4.446;2023-04-25T00:02:25;6.30;99.90
47521;DHT22;32291;52.010;4.446;2023-04-25T00:03:26;6.20;99.90
47521;DHT22;32291;52.010;4.446;2023-04-25T00:04:28;6.20;99.90
47521;DHT22;32291;52.010;4.446;2023-04-25T00:05:30;6.10;99.90
47521;DHT22;32291;52.010;4.446;2023-04-25T00:06:34;6.10;99.90
47521;DHT22;32291;52.010;4.446;2023-04-25T00:07:37;6.10;99.90
47521;DHT22;32291;52.010;4.446;2023-04-25T00:08:40;6.10;99.90
47521;DHT22;32291;52.010;4.446;2023-04-25T00:09:42;6.00;99.90
47521;DHT22;32291;52.010;4.446;2023-04-25T00:10:44;5.90;99.90
47521;DHT22;32291;52.010;4.446;2023-04-25T00:11:46;5.90;99.90
47521;DHT22;32291;52.010;4.446;2023-04-25T00:12:48;6.00;99.90
47521;DHT22;32291;52.010;4.446;2023-04-25T00:13:50;5.90;99.90
47521;DHT22;32291;52.010;4.446;2023-04-25T00:14:52;5.80;99.90
47521;DHT22;32291;52.010;4.446;2023-04-25T00:15:54;5.80;99.90
47521;DHT22;32291;52.010;4.446;2023-04-25T00:16:55;5.80;99.90
47521;DHT22;32291;52.010;4.446;2023-04-25T00:17:57;5.70;99.90
47521;DHT22;32291;52.010;4.446;2023-04-25T00:18:59;5.60;99.90
47521;DHT22;32291;52.010;4.446;2023-04-25T00:20:02;5.60;99.90
47521;DHT22;32291;52.010;4.446;2023-04-25T00:21:06;5.60;99.90
47521;DHT22;32291;52.010;4.446;2023-04-25T00:22:07;5.60;99.90
47521;DHT22;32291;52.010;4.446;2023-04-25T00:23:09;5.50;99.90
47521;DHT22;32291;52.010;4.446;2023-04-25T00:24:12;5.50;99.90
47521;DHT22;32291;52.010;4.446;2023-04-25T00:25:14;5.50;99.90
47521;DHT22;32291;52.010;4.446;2023-04-25T00:26:16;5.40;99.90
47521;DHT22;32291;52.010;4.446;2023-04-25T00:27:18;5.40;99.90
47521;DHT22;32291;52.010;4.446;2023-04-25T00:28:20;5.20;99.90
47521;DHT22;32291;52.010;4.446;2023-04-25T00:29:22;5.30;99.90
47521;DHT22;32291;52.010;4.446;2023-04-25T00:30:23;5.20;99.90
47521;DHT22;32291;52.010;4.446;2023-04-25T00:31:25;5.20;99.90
47521;DHT22;32291;52.010;4.446;2023-04-25T00:32:26;5.20;99.90
47521;DHT22;32291;52.010;4.446;2023-04-25T00:33:29;5.30;99.90
47521;DHT22;32291;52.010;4.446;2023-04-25T00:34:31;5.20;99.90
47521;DHT22;32291;52.010;4.446;2023-04-25T00:35:36;5.30;99.90
47521;DHT22;32291;52.010;4.446;2023-04-25T00:36:38;5.30;99.90
47521;DHT22;32291;52.010;4.446;2023-04-25T00:37:40;5.30;99.90
47521;DHT22;32291;52.010;4.446;2023-04-25T00:38:41;5.30;99.90
47521;DHT22;32291;52.010;4.446;2023-04-25T00:39:43;5.40;99.90
47521;DHT22;32291;52.010;4.446;2023-04-25T00:40:45;5.30;99.90
47521;DHT22;32291;52.010;4.446;2023-04-25T00:41:48;5.40;99.90
47521;DHT22;32291;52.010;4.446;2023-04-25T00:42:52;5.40;99.90
47521;DHT22;32291;52.010;4.446;2023-04-25T00:43:54;5.50;99.90
47521;DHT22;32291;52.010;4.446;2023-04-25T00:44:58;5.50;99.90
47521;DHT22;32291;52.010;4.446;2023-04-25T00:46:01;5.80;99.90
47521;DHT22;32291;52.010;4.446;2023-04-25T00:47:03;5.60;99.90
47521;DHT22;32291;52.010;4.446;2023-04-25T00:48:06;5.60;99.90
47521;DHT22;32291;52.010;4.446;2023-04-25T00:49:07;5.60;99.90
47521;DHT22;32291;52.010;4.446;2023-04-25T00:50:10;5.60;99.90
47521;DHT22;32291;52.010;4.446;2023-04-25T00:51:16;5.70;99.90
47521;DHT22;32291;52.010;4.446;2023-04-25T00:52:21;5.70;99.90
47521;DHT22;32291;52.010;4.446;2023-04-25T00:53:24;5.80;99.90
47521;DHT22;32291;52.010;4.446;2023-04-25T00:54:28;5.70;99.90
47521;DHT22;32291;52.010;4.446;2023-04-25T00:55:31;5.80;99.90
47521;DHT22;32291;52.010;4.446;2023-04-25T00:56:35;5.80;99.90
47521;DHT22;32291;52.010;4.446;2023-04-25T00:57:37;5.80;99.90
47521;DHT22;32291;52.010;4.446;2023-04-25T00:58:40;5.80;99.90
47521;DHT22;32291;52.010;4.446;2023-04-25T00:59:45;5.90;99.90
47521;DHT22;32291;52.010;4.446;2023-04-25T01:00:48;5.90;99.90
47521;DHT22;32291;52.010;4.446;2023-04-25T01:01:53;5.90;99.90
47521;DHT22;32291;52.010;4.446;2023-04-25T01:02:55;6.10;99.90
47521;DHT22;32291;52.010;4.446;2023-04-25T01:03:58;6.00;99.90
47521;DHT22;32291;52.010;4.446;2023-04-25T01:05:03;6.10;99.90
47521;DHT22;32291;52.010;4.446;2023-04-25T01:06:05;6.00;99.90
47521;DHT22;32291;52.010;4.446;2023-04-25T01:07:10;6.00;99.90
47521;DHT22;32291;52.010;4.446;2023-04-25T01:08:13;6.00;99.90
47521;DHT22;32291;52.010;4.446;2023-04-25T01:09:15;6.10;99.90
47521;DHT22;32291;52.010;4.446;2023-04-25T01:10:17;6.10;99.90
47521;DHT22;32291;52.010;4.446;2023-04-25T01:11:20;6.10;99.90
47521;DHT22;32291;52.010;4.446;2023-04-25T01:12:22;6.10;99.90
47521;DHT22;32291;52.010;4.446;2023-04-25T01:13:25;6.10;99.90
47521;DHT22;32291;52.010;4.446;2023-04-25T01:14:27;6.10;99.90
47521;DHT22;32291;52.010;4.446;2023-04-25T01:15:29;6.10;99.90
47521;DHT22;32291;52.010;4.446;2023-04-25T01:16:31;6.30;99.90
47521;DHT22;32291;52.010;4.446;2023-04-25T01:17:34;6.10;99.90
47521;DHT22;32291;52.010;4.446;2023-04-25T01:18:40;6.00;99.90
47521;DHT22;32291;52.010;4.446;2023-04-25T01:19:43;6.00;99.90
47521;DHT22;32291;52.010;4.446;2023-04-25T01:20:52;6.00;99.90
47521;DHT22;32291;52.010;4.446;2023-04-25T01:21:55;5.80;99.90
47521;DHT22;32291;52.010;4.446;2023-04-25T01:22:57;5.90;99.90
47521;DHT22;32291;52.010;4.446;2023-04-25T01:23:58;5.80;99.90
47521;DHT22;32291;52.010;4.446;2023-04-25T01:25:01;5.70;99.90
47521;DHT22;32291;52.010;4.446;2023-04-25T01:26:03;5.70;99.90
47521;DHT22;32291;52.010;4.446;2023-04-25T01:27:06;5.60;99.90
47521;DHT22;32291;52.010;4.446;2023-04-25T01:28:08;5.60;99.90
47521;DHT22;32291;52.010;4.446;2023-04-25T01:29:10;5.60;99.90
47521;DHT22;32291;52.010;4.446;2023-04-25T01:30:13;5.60;99.90
47521;DHT22;32291;52.010;4.446;2023-04-25T01:31:15;5.60;99.90
47521;DHT22;32291;52.010;4.446;2023-04-25T01:32:18;5.60;99.90
47521;DHT22;32291;52.010;4.446;2023-04-25T01:33:21;5.60;99.90
47521;DHT22;32291;52.010;4.446;2023-04-25T01:34:23;5.50;99.90
47521;DHT22;32291;52.010;4.446;2023-04-25T01:35:25;5.50;99.90
47521;DHT22;32291;52.010;4.446;2023-04-25T01:36:27;5.50;99.90
47521;DHT22;32291;52.010;4.446;2023-04-25T01:37:30;5.50;99.90
47521;DHT22;32291;52.010;4.446;2023-04-25T01:38:31;5.50;99.90
47521;DHT22;32291;52.010;4.446;2023-04-25T01:39:34;5.40;99.90
47521;DHT22;32291;52.010;4.446;2023-04-25T01:40:39;5.40;99.90
47521;DHT22;32291;52.010;4.446;2023-04-25T01:41:42;5.30;99.90
47521;DHT22;32291;52.010;4.446;2023-04-25T01:42:44;5.30;99.90
47521;DHT22;32291;52.010;4.446;2023-04-25T01:43:46;5.30;99.90
47521;DHT22;32291;52.010;4.446;2023-04-25T01:44:47;5.30;99.90
47521;DHT22;32291;52.010;4.446;2023-04-25T01:45:49;5.30;99.90
47521;DHT22;32291;52.010;4.446;2023-04-25T01:46:51;5.30;99.90
47521;DHT22;32291;52.010;4.446;2023-04-25T01:47:54;5.20;99.90
47521;DHT22;32291;52.010;4.446;2023-04-25T01:48:56;5.30;99.90
47521;DHT22;32291;52.010;4.446;2023-04-25T01:49:58;5.30;99.90
47521;DHT22;32291;52.010;4.446;2023-04-25T01:51:00;5.30;99.90
47521;DHT22;32291;52.010;4.446;2023-04-25T01:52:02;5.20;99.90
47521;DHT22;32291;52.010;4.446;2023-04-25T01:53:05;5.20;99.90
47521;DHT22;32291;52.010;4.446;2023-04-25T01:54:08;5.20;99.90
47521;DHT22;32291;52.010;4.446;2023-04-25T01:55:11;5.20;99.90
47521;DHT22;32291;52.010;4.446;2023-04-25T01:56:13;5.30;99.90
47521;DHT22;32291;52.010;4.446;2023-04-25T01:57:14;5.30;99.90
47521;DHT22;32291;52.010;4.446;2023-04-25T01:58:16;5.50;99.90
47521;DHT22;32291;52.010;4.446;2023-04-25T01:59:18;5.30;99.90
47521;DHT22;32291;52.010;4.446;2023-04-25T02:00:22;5.30;99.90
47521;DHT22;32291;52.010;4.446;2023-04-25T02:01:24;5.40;99.90
47521;DHT22;32291;52.010;4.446;2023-04-25T02:02:26;5.50;99.90
47521;DHT22;32291;52.010;4.446;2023-04-25T02:03:29;5.40;99.90
47521;DHT22;32291;52.010;4.446;2023-04-25T02:04:32;5.40;99.90
47521;DHT22;32291;52.010;4.446;2023-04-25T02:05:36;5.50;99.90
47521;DHT22;32291;52.010;4.446;2023-04-25T02:06:39;5.60;99.90
47521;DHT22;32291;52.010;4.446;2023-04-25T02:07:41;5.60;99.90
47521;DHT22;32291;52.010;4.446;2023-04-25T02:08:43;5.60;99.90
47521;DHT22;32291;52.010;4.446;2023-04-25T02:09:44;6.20;99.90
47521;DHT22;32291;52.010;4.446;2023-04-25T02:10:46;5.60;99.90
47521;DHT22;32291;52.010;4.446;2023-04-25T02:11:48;5.70;99.90
47521;DHT22;32291;52.010;4.446;2023-04-25T02:12:50;5.70;99.90
47521;DHT22;32291;52.010;4.446;2023-04-25T02:13:52;5.80;99.90
47521;DHT22;32291;52.010;4.446;2023-04-25T02:14:53;5.80;99.90
47521;DHT22;32291;52.010;4.446;2023-04-25T02:15:55;5.80;99.90
47521;DHT22;32291;52.010;4.446;2023-04-25T02:16:57;5.80;99.90
47521;DHT22;32291;52.010;4.446;2023-04-25T02:17:59;5.90;99.90
47521;DHT22;32291;52.010;4.446;2023-04-25T02:19:04;5.90;99.90
47521;DHT22;32291;52.010;4.446;2023-04-25T02:20:06;5.90;99.90
47521;DHT22;32291;52.010;4.446;2023-04-25T02:21:08;6.00;99.90
47521;DHT22;32291;52.010;4.446;2023-04-25T02:22:10;6.10;99.90
47521;DHT22;32291;52.010;4.446;2023-04-25T02:23:11;6.00;99.90
47521;DHT22;32291;52.010;4.446;2023-04-25T02:24:13;6.10;99.90
47521;DHT22;32291;52.010;4.446;2023-04-25T02:25:17;6.10;99.90
47521;DHT22;32291;52.010;4.446;2023-04-25T02:26:21;6.10;99.90
47521;DHT22;32291;52.010;4.446;2023-04-25T02:27:22;6.10;99.90
47521;DHT22;32291;52.010;4.446;2023-04-25T02:28:24;6.10;99.90
47521;DHT22;32291;52.010;4.446;2023-04-25T02:29:27;6.10;99.90
47521;DHT22;32291;52.010;4.446;2023-04-25T02:30:28;6.10;99.90
47521;DHT22;32291;52.010;4.446;2023-04-25T02:31:30;6.10;99.90
47521;DHT22;32291;52.010;4.446;2023-04-25T02:32:32;6.00;99.90
47521;DHT22;32291;52.010;4.446;2023-04-25T02:33:35;6.10;99.90
47521;DHT22;32291;52.010;4.446;2023-04-25T02:34:36;6.10;99.90
47521;DHT22;32291;52.010;4.446;2023-04-25T02:35:38;6.00;99.90
47521;DHT22;32291;52.010;4.446;2023-04-25T02:36:40;6.00;99.90
47521;DHT22;32291;52.010;4.446;2023-04-25T02:37:42;5.90;99.90
47521;DHT22;32291;52.010;4.446;2023-04-25T02:38:44;6.00;99.90
47521;DHT22;32291;52.010;4.446;2023-04-25T02:39:46;6.00;99.90
47521;DHT22;32291;52.010;4.446;2023-04-25T02:40:47;5.90;99.90
47521;DHT22;32291;52.010;4.446;2023-04-25T02:41:49;5.90;99.90
47521;DHT22;32291;52.010;4.446;2023-04-25T02:42:51;5.90;99.90
47521;DHT22;32291;52.010;4.446;2023-04-25T02:43:52;6.10;99.90
47521;DHT22;32291;52.010;4.446;2023-04-25T02:44:54;6.00;99.90
47521;DHT22;32291;52.010;4.446;2023-04-25T02:45:57;5.90;99.90
47521;DHT22;32291;52.010;4.446;2023-04-25T02:46:58;5.90;99.90
47521;DHT22;32291;52.010;4.446;2023-04-25T02:48:00;5.90;99.90
47521;DHT22;32291;52.010;4.446;2023-04-25T02:49:02;5.80;99.90
47521;DHT22;32291;52.010;4.446;2023-04-25T02:50:03;5.80;99.90
47521;DHT22;32291;52.010;4.446;2023-04-25T02:51:06;5.80;99.90
47521;DHT22;32291;52.010;4.446;2023-04-25T02:52:08;5.90;99.90
47521;DHT22;32291;52.010;4.446;2023-04-25T02:53:10;5.90;99.90
47521;DHT22;32291;52.010;4.446;2023-04-25T02:54:12;5.90;99.90
47521;DHT22;32291;52.010;4.446;2023-04-25T02:55:14;6.00;99.90
47521;DHT22;32291;52.010;4.446;2023-04-25T02:56:16;6.00;99.90
47521;DHT22;32291;52.010;4.446;2023-04-25T02:57:18;6.00;99.90
47521;DHT22;32291;52.010;4.446;2023-04-25T02:58:20;6.20;99.90
47521;DHT22;32291;52.010;4.446;2023-04-25T02:59:22;6.10;99.90
47521;DHT22;32291;52.010;4.446;2023-04-25T03:00:23;6.00;99.90
47521;DHT22;32291;52.010;4.446;2023-04-25T03:01:25;6.10;99.90
47521;DHT22;32291;52.010;4.446;2023-04-25T03:02:26;6.00;99.90
47521;DHT22;32291;52.010;4.446;2023-04-25T03:03:28;6.10;99.90
47521;DHT22;32291;52.010;4.446;2023-04-25T03:04:30;6.00;99.90
47521;DHT22;32291;52.010;4.446;2023-04-25T03:05:32;6.30;99.90
47521;DHT22;32291;52.010;4.446;2023-04-25T03:06:33;6.00;99.90
47521;DHT22;32291;52.010;4.446;2023-04-25T03:07:35;6.00;99.90
47521;DHT22;32291;52.010;4.446;2023-04-25T03:08:37;6.10;99.90
47521;DHT22;32291;52.010;4.446;2023-04-25T03:09:38;6.10;99.90
47521;DHT22;32291;52.010;4.446;2023-04-25T03:10:40;6.10;99.90
47521;DHT22;32291;52.010;4.446;2023-04-25T03:11:43;6.10;99.90
47521;DHT22;32291;52.010;4.446;2023-04-25T03:12:46;6.20;99.90
47521;DHT22;32291;52.010;4.446;2023-04-25T03:13:47;6.10;99.90
47521;DHT22;32291;52.010;4.446;2023-04-25T03:14:49;6.10;99.90
47521;DHT22;32291;52.010;4.446;2023-04-25T03:15:51;6.00;99.90
47521;DHT22;32291;52.010;4.446;2023-04-25T03:16:52;6.00;99.90
47521;DHT22;32291;52.010;4.446;2023-04-25T03:17:54;6.10;99.90
47521;DHT22;32291;52.010;4.446;2023-04-25T03:18:56;6.00;99.90
47521;DHT22;32291;52.010;4.446;2023-04-25T03:19:58;6.10;99.90
47521;DHT22;32291;52.010;4.446;2023-04-25T03:20:59;6.30;99.90
47521;DHT22;32291;52.010;4.446;2023-04-25T03:22:01;6.10;99.90
47521;DHT22;32291;52.010;4.446;2023-04-25T03:23:03;6.10;99.90
47521;DHT22;32291;52.010;4.446;2023-04-25T03:24:05;6.10;99.90
47521;DHT22;32291;52.010;4.446;2023-04-25T03:25:07;6.10;99.90
47521;DHT22;32291;52.010;4.446;2023-04-25T03:26:09;6.10;99.90
47521;DHT22;32291;52.010;4.446;2023-04-25T03:27:11;6.10;99.90
47521;DHT22;32291;52.010;4.446;2023-04-25T03:28:13;6.20;99.90
47521;DHT22;32291;52.010;4.446;2023-04-25T03:29:15;6.10;99.90
47521;DHT22;32291;52.010;4.446;2023-04-25T03:30:17;6.10;99.90
47521;DHT22;32291;52.010;4.446;2023-04-25T03:31:20;6.10;99.90
47521;DHT22;32291;52.010;4.446;2023-04-25T03:32:22;6.10;99.90
47521;DHT22;32291;52.010;4.446;2023-04-25T03:33:23;6.10;99.90
47521;DHT22;32291;52.010;4.446;2023-04-25T03:34:25;6.10;99.90
47521;DHT22;32291;52.010;4.446;2023-04-25T03:35:27;6.10;99.90
47521;DHT22;32291;52.010;4.446;2023-04-25T03:36:29;6.10;99.90
47521;DHT22;32291;52.010;4.446;2023-04-25T03:37:31;6.10;99.90
47521;DHT22;32291;52.010;4.446;2023-04-25T03:38:32;6.20;99.90
47521;DHT22;32291;52.010;4.446;2023-04-25T03:39:34;6.20;99.90
47521;DHT22;32291;52.010;4.446;2023-04-25T03:40:36;6.20;99.90
47521;DHT22;32291;52.010;4.446;2023-04-25T03:41:37;6.20;99.90
47521;DHT22;32291;52.010;4.446;2023-04-25T03:42:39;6.20;99.90
47521;DHT22;32291;52.010;4.446;2023-04-25T03:43:41;6.30;99.90
47521;DHT22;32291;52.010;4.446;2023-04-25T03:44:42;6.30;99.90
47521;DHT22;32291;52.010;4.446;2023-04-25T03:45:44;6.30;99.90
47521;DHT22;32291;52.010;4.446;2023-04-25T03:46:46;6.30;99.90
47521;DHT22;32291;52.010;4.446;2023-04-25T03:47:47;6.40;99.90
47521;DHT22;32291;52.010;4.446;2023-04-25T03:48:49;6.40;99.90
47521;DHT22;32291;52.010;4.446;2023-04-25T03:49:51;6.40;99.90
47521;DHT22;32291;52.010;4.446;2023-04-25T03:50:54;6.50;99.90
47521;DHT22;32291;52.010;4.446;2023-04-25T03:51:56;6.40;99.90
47521;DHT22;32291;52.010;4.446;2023-04-25T03:52:58;6.40;99.90
47521;DHT22;32291;52.010;4.446;2023-04-25T03:54:00;6.50;99.90
47521;DHT22;32291;52.010;4.446;2023-04-25T03:55:02;6.50;99.90
47521;DHT22;32291;52.010;4.446;2023-04-25T03:56:06;6.50;99.90
47521;DHT22;32291;52.010;4.446;2023-04-25T03:57:08;6.40;99.90
47521;DHT22;32291;52.010;4.446;2023-04-25T03:58:09;6.50;99.90
47521;DHT22;32291;52.010;4.446;2023-04-25T03:59:11;6.40;99.90
47521;DHT22;32291;52.010;4.446;2023-04-25T04:00:13;6.40;99.90
47521;DHT22;32291;52.010;4.446;2023-04-25T04:01:15;6.40;99.90
47521;DHT22;32291;52.010;4.446;2023-04-25T04:02:17;6.40;99.90
47521;DHT22;32291;52.010;4.446;2023-04-25T04:03:19;6.50;99.90
47521;DHT22;32291;52.010;4.446;2023-04-25T04:04:21;6.40;99.90
47521;DHT22;32291;52.010;4.446;2023-04-25T04:05:23;6.40;99.90
47521;DHT22;32291;52.010;4.446;2023-04-25T04:06:25;6.40;99.90
47521;DHT22;32291;52.010;4.446;2023-04-25T04:07:26;6.40;99.90
47521;DHT22;32291;52.010;4.446;2023-04-25T04:08:28;6.40;99.90
47521;DHT22;32291;52.010;4.446;2023-04-25T04:09:30;6.40;99.90
47521;DHT22;32291;52.010;4.446;2023-04-25T04:10:31;6.40;99.90
47521;DHT22;32291;52.010;4.446;2023-04-25T04:11:33;6.40;99.90
47521;DHT22;32291;52.010;4.446;2023-04-25T04:12:35;6.40;99.90
47521;DHT22;32291;52.010;4.446;2023-04-25T04:13:38;6.50;99.90
47521;DHT22;32291;52.010;4.446;2023-04-25T04:14:40;6.40;99.90
47521;DHT22;32291;52.010;4.446;2023-04-25T04:15:42;6.40;99.90
47521;DHT22;32291;52.010;4.446;2023-04-25T04:16:43;6.40;99.90
47521;DHT22;32291;52.010;4.446;2023-04-25T04:17:47;6.40;99.90
47521;DHT22;32291;52.010;4.446;2023-04-25T04:18:49;6.40;99.90
47521;DHT22;32291;52.010;4.446;2023-04-25T04:19:51;6.30;99.90
47521;DHT22;32291;52.010;4.446;2023-04-25T04:20:53;6.30;99.90
47521;DHT22;32291;52.010;4.446;2023-04-25T04:21:55;6.30;99.90
47521;DHT22;32291;52.010;4.446;2023-04-25T04:22:57;6.20;99.90
47521;DHT22;32291;52.010;4.446;2023-04-25T04:23:58;6.30;99.90
47521;DHT22;32291;52.010;4.446;2023-04-25T04:25:01;6.30;99.90
47521;DHT22;32291;52.010;4.446;2023-04-25T04:26:03;6.30;99.90
47521;DHT22;32291;52.010;4.446;2023-04-25T04:27:05;6.30;99.90
47521;DHT22;32291;52.010;4.446;2023-04-25T04:28:07;6.50;99.90
47521;DHT22;32291;52.010;4.446;2023-04-25T04:29:09;6.30;99.90
47521;DHT22;32291;52.010;4.446;2023-04-25T04:30:12;6.20;99.90
47521;DHT22;32291;52.010;4.446;2023-04-25T04:31:14;6.30;99.90
47521;DHT22;32291;52.010;4.446;2023-04-25T04:32:17;6.30;99.90
47521;DHT22;32291;52.010;4.446;2023-04-25T04:33:18;6.30;99.90
47521;DHT22;32291;52.010;4.446;2023-04-25T04:34:20;6.30;99.90
47521;DHT22;32291;52.010;4.446;2023-04-25T04:35:25;6.20;99.90
47521;DHT22;32291;52.010;4.446;2023-04-25T04:36:26;6.30;99.90
47521;DHT22;32291;52.010;4.446;2023-04-25T04:37:29;6.30;99.90
47521;DHT22;32291;52.010;4.446;2023-04-25T04:38:31;6.10;99.90
47521;DHT22;32291;52.010;4.446;2023-04-25T04:39:36;6.10;99.90
47521;DHT22;32291;52.010;4.446;2023-04-25T04:40:38;6.00;99.90
47521;DHT22;32291;52.010;4.446;2023-04-25T04:41:39;6.00;99.90
47521;DHT22;32291;52.010;4.446;2023-04-25T04:42:42;6.00;99.90
47521;DHT22;32291;52.010;4.446;2023-04-25T04:43:44;5.90;99.90
47521;DHT22;32291;52.010;4.446;2023-04-25T04:44:46;5.90;99.90
47521;DHT22;32291;52.010;4.446;2023-04-25T04:45:48;5.80;99.90
47521;DHT22;32291;52.010;4.446;2023-04-25T04:46:51;5.80;99.90
47521;DHT22;32291;52.010;4.446;2023-04-25T04:47:52;5.80;99.90
47521;DHT22;32291;52.010;4.446;2023-04-25T04:48:57;6.00;99.90
47521;DHT22;32291;52.010;4.446;2023-04-25T04:49:59;5.90;99.90
47521;DHT22;32291;52.010;4.446;2023-04-25T04:51:01;5.90;99.90
47521;DHT22;32291;52.010;4.446;2023-04-25T04:52:03;5.80;99.90
47521;DHT22;32291;52.010;4.446;2023-04-25T04:53:04;5.80;99.90
47521;DHT22;32291;52.010;4.446;2023-04-25T04:54:06;5.80;99.90
47521;DHT22;32291;52.010;4.446;2023-04-25T04:55:08;5.90;99.90
47521;DHT22;32291;52.010;4.446;2023-04-25T04:56:10;6.00;99.90
47521;DHT22;32291;52.010;4.446;2023-04-25T04:57:12;6.00;99.90
47521;DHT22;32291;52.010;4.446;2023-04-25T04:58:14;6.20;99.90
47521;DHT22;32291;52.010;4.446;2023-04-25T04:59:16;6.10;99.90
47521;DHT22;32291;52.010;4.446;2023-04-25T05:00:18;6.10;99.90
47521;DHT22;32291;52.010;4.446;2023-04-25T05:01:22;6.20;99.90
47521;DHT22;32291;52.010;4.446;2023-04-25T05:02:24;6.20;99.90
47521;DHT22;32291;52.010;4.446;2023-04-25T05:03:26;6.30;99.90
47521;DHT22;32291;52.010;4.446;2023-04-25T05:04:28;6.30;99.90
47521;DHT22;32291;52.010;4.446;2023-04-25T05:05:30;6.20;99.90
47521;DHT22;32291;52.010;4.446;2023-04-25T05:06:32;6.30;99.90
47521;DHT22;32291;52.010;4.446;2023-04-25T05:07:34;6.30;99.90
47521;DHT22;32291;52.010;4.446;2023-04-25T05:08:36;6.30;99.90
47521;DHT22;32291;52.010;4.446;2023-04-25T05:09:38;6.30;99.90
47521;DHT22;32291;52.010;4.446;2023-04-25T05:10:40;6.30;99.90
47521;DHT22;32291;52.010;4.446;2023-04-25T05:11:43;6.30;99.90
47521;DHT22;32291;52.010;4.446;2023-04-25T05:12:44;6.30;99.90
47521;DHT22;32291;52.010;4.446;2023-04-25T05:13:46;6.30;99.90
47521;DHT22;32291;52.010;4.446;2023-04-25T05:14:48;6.20;99.90
47521;DHT22;32291;52.010;4.446;2023-04-25T05:15:50;6.20;99.90
47521;DHT22;32291;52.010;4.446;2023-04-25T05:16:52;6.20;99.90
47521;DHT22;32291;52.010;4.446;2023-04-25T05:17:53;6.10;99.90
47521;DHT22;32291;52.010;4.446;2023-04-25T05:18:55;6.10;99.90
47521;DHT22;32291;52.010;4.446;2023-04-25T05:19:57;6.10;99.90
47521;DHT22;32291;52.010;4.446;2023-04-25T05:20:58;6.10;99.90
47521;DHT22;32291;52.010;4.446;2023-04-25T05:22:00;6.10;99.90
47521;DHT22;32291;52.010;4.446;2023-04-25T05:23:03;6.30;99.90
47521;DHT22;32291;52.010;4.446;2023-04-25T05:24:05;6.10;99.90
47521;DHT22;32291;52.010;4.446;2023-04-25T05:25:10;6.10;99.90
47521;DHT22;32291;52.010;4.446;2023-04-25T05:26:12;6.10;99.90
47521;DHT22;32291;52.010;4.446;2023-04-25T05:27:17;6.30;99.90
47521;DHT22;32291;52.010;4.446;2023-04-25T05:28:20;6.20;99.90
47521;DHT22;32291;52.010;4.446;2023-04-25T05:29:22;6.20;99.90
47521;DHT22;32291;52.010;4.446;2023-04-25T05:30:24;6.20;99.90
47521;DHT22;32291;52.010;4.446;2023-04-25T05:31:26;6.40;99.90
47521;DHT22;32291;52.010;4.446;2023-04-25T05:32:28;6.30;99.90
47521;DHT22;32291;52.010;4.446;2023-04-25T05:33:30;6.30;99.90
47521;DHT22;32291;52.010;4.446;2023-04-25T05:34:31;6.30;99.90
47521;DHT22;32291;52.010;4.446;2023-04-25T05:35:33;6.30;99.90
47521;DHT22;32291;52.010;4.446;2023-04-25T05:36:36;6.40;99.90
47521;DHT22;32291;52.010;4.446;2023-04-25T05:37:37;6.40;99.90
47521;DHT22;32291;52.010;4.446;2023-04-25T05:38:39;6.40;99.90
47521;DHT22;32291;52.010;4.446;2023-04-25T05:39:41;6.50;99.90
47521;DHT22;32291;52.010;4.446;2023-04-25T05:40:43;6.50;99.90
47521;DHT22;32291;52.010;4.446;2023-04-25T05:41:45;6.60;99.90
47521;DHT22;32291;52.010;4.446;2023-04-25T05:42:46;6.80;99.90
47521;DHT22;32291;52.010;4.446;2023-04-25T05:43:48;6.80;99.90
47521;DHT22;32291;52.010;4.446;2023-04-25T05:44:50;6.80;99.90
47521;DHT22;32291;52.010;4.446;2023-04-25T05:45:52;6.90;99.90
47521;DHT22;32291;52.010;4.446;2023-04-25T05:46:54;6.90;99.90
47521;DHT22;32291;52.010;4.446;2023-04-25T05:47:55;7.10;99.90
47521;DHT22;32291;52.010;4.446;2023-04-25T05:48:57;7.10;99.90
47521;DHT22;32291;52.010;4.446;2023-04-25T05:49:59;7.10;99.90
47521;DHT22;32291;52.010;4.446;2023-04-25T05:51:01;7.20;99.90
47521;DHT22;32291;52.010;4.446;2023-04-25T05:52:03;7.50;99.90
47521;DHT22;32291;52.010;4.446;2023-04-25T05:53:05;7.30;99.90
47521;DHT22;32291;52.010;4.446;2023-04-25T05:54:06;7.30;99.90
47521;DHT22;32291;52.010;4.446;2023-04-25T05:55:08;7.40;99.90
47521;DHT22;32291;52.010;4.446;2023-04-25T05:56:10;7.40;99.90
47521;DHT22;32291;52.010;4.446;2023-04-25T05:57:25;7.40;99.90
47521;DHT22;32291;52.010;4.446;2023-04-25T05:58:28;7.40;99.90
47521;DHT22;32291;52.010;4.446;2023-04-25T05:59:30;7.50;99.90
47521;DHT22;32291;52.010;4.446;2023-04-25T06:00:32;7.40;99.90
47521;DHT22;32291;52.010;4.446;2023-04-25T06:01:35;7.40;99.90
47521;DHT22;32291;52.010;4.446;2023-04-25T06:02:37;7.30;99.90
47521;DHT22;32291;52.010;4.446;2023-04-25T06:03:38;7.30;99.90
47521;DHT22;32291;52.010;4.446;2023-04-25T06:04:43;7.20;99.90
47521;DHT22;32291;52.010;4.446;2023-04-25T06:05:45;7.20;99.90
47521;DHT22;32291;52.010;4.446;2023-04-25T06:06:47;7.20;99.90
47521;DHT22;32291;52.010;4.446;2023-04-25T06:07:49;7.20;99.90
47521;DHT22;32291;52.010;4.446;2023-04-25T06:08:50;7.20;99.90
47521;DHT22;32291;52.010;4.446;2023-04-25T06:09:52;7.10;99.90
47521;DHT22;32291;52.010;4.446;2023-04-25T06:10:54;7.10;99.90
47521;DHT22;32291;52.010;4.446;2023-04-25T06:11:56;7.10;99.90
47521;DHT22;32291;52.010;4.446;2023-04-25T06:12:57;7.10;99.90
47521;DHT22;32291;52.010;4.446;2023-04-25T06:14:00;7.10;99.90
47521;DHT22;32291;52.010;4.446;2023-04-25T06:15:02;7.10;99.90
47521;DHT22;32291;52.010;4.446;2023-04-25T06:16:04;7.20;99.90
47521;DHT22;32291;52.010;4.446;2023-04-25T06:17:06;7.20;99.90
47521;DHT22;32291;52.010;4.446;2023-04-25T06:18:09;7.20;99.90
47521;DHT22;32291;52.010;4.446;2023-04-25T06:19:11;7.20;99.90
47521;DHT22;32291;52.010;4.446;2023-04-25T06:20:13;7.30;99.90
47521;DHT22;32291;52.010;4.446;2023-04-25T06:21:15;7.30;99.90
47521;DHT22;32291;52.010;4.446;2023-04-25T06:22:17;7.20;99.90
47521;DHT22;32291;52.010;4.446;2023-04-25T06:23:19;7.20;99.90
47521;DHT22;32291;52.010;4.446;2023-04-25T06:24:21;7.30;99.90
47521;DHT22;32291;52.010;4.446;2023-04-25T06:25:23;7.30;99.90
47521;DHT22;32291;52.010;4.446;2023-04-25T06:26:24;7.30;99.90
47521;DHT22;32291;52.010;4.446;2023-04-25T06:27:26;7.30;99.90
47521;DHT22;32291;52.010;4.446;2023-04-25T06:28:28;7.40;99.90
47521;DHT22;32291;52.010;4.446;2023-04-25T06:29:30;7.50;99.90
47521;DHT22;32291;52.010;4.446;2023-04-25T06:30:31;7.50;99.90
47521;DHT22;32291;52.010;4.446;2023-04-25T06:31:33;7.60;99.90
47521;DHT22;32291;52.010;4.446;2023-04-25T06:32:35;7.60;99.90
47521;DHT22;32291;52.010;4.446;2023-04-25T06:33:37;7.70;99.90
47521;DHT22;32291;52.010;4.446;2023-04-25T06:34:39;7.80;99.90
47521;DHT22;32291;52.010;4.446;2023-04-25T06:35:41;7.90;99.90
47521;DHT22;32291;52.010;4.446;2023-04-25T06:36:42;8.10;99.90
47521;DHT22;32291;52.010;4.446;2023-04-25T06:37:45;8.00;99.90
47521;DHT22;32291;52.010;4.446;2023-04-25T06:38:46;8.10;99.90